Coriollis II — CGDN — position and weather

sailwx.info

Track history (hours):
 
Tides and Currents Weather Stations Pressure Air Temp Water Temp Dewpoint Dewpoint Depression Visibility Wind Speed Wind Dir Waves Ship Positions

Oceanographic research ship Coriollis II (Canada)

Detailed information on ship capabilities available from University of Delaware's Ocean Information Center.

Last reported at 2017-Nov-18 09:52 UTC. Time now 2017-Dec-12 23:50 UTC.
Position N 51°03' W 057°14'.
Warning: this ship's position is 24 days out of date.

Length 50 m; draft 5.2 m.

Type: Ship. MMSI: 316133000.

Date/timePositionNaut miles runAvg speedWind from/ knotsBaromVisibWave heightAir tempDewpointWater temp
2017-Nov-18 09:52N 51°03' W 057°14'3 7.0
2017-Nov-18 09:30N 51°01' W 057°16'3 6.9
2017-Nov-18 09:00N 50°59' W 057°20'3 6.6
2017-Nov-18 08:29N 50°56' W 057°23'3 6.1
2017-Nov-18 08:00N 50°53' W 057°25'3 6.3
2017-Nov-18 07:30N 50°51' W 057°28'3 6.0
2017-Nov-18 07:00N 50°48' W 057°30'3 5.4
2017-Nov-18 06:30N 50°45' W 057°32'3 6.3
2017-Nov-18 06:00N 50°43' W 057°34'1 1.4
2017-Nov-18 05:30N 50°42' W 057°34'0 0.6
2017-Nov-18 05:00N 50°42' W 057°34'0 0.1
2017-Nov-18 04:30N 50°42' W 057°34'0 0.3
2017-Nov-18 04:00N 50°42' W 057°34'5 9.5
2017-Nov-18 03:30N 50°37' W 057°37'5 9.7
2017-Nov-18 03:00N 50°33' W 057°39'  
Track history (hours):
 
Tides and Currents Weather Stations Pressure Air Temp Water Temp Dewpoint Dewpoint Depression Visibility Wind Speed Wind Dir Waves Ship Positions

Oceanographic research ship Coriollis II (Canada)

Detailed information on ship capabilities available from University of Delaware's Ocean Information Center.

Last reported at 2017-Nov-18 09:52 UTC. Time now 2017-Dec-12 23:50 UTC.
Position N 51°03' W 057°14'.
Warning: this ship's position is 24 days out of date.

Length 50 m; draft 5.2 m.

Type: Ship. MMSI: 316133000.

Date/timePositionNaut miles runAvg speedWind from/ knotsBaromVisibWave heightAir tempDewpointWater temp
2017-Nov-18 09:52N 51°03' W 057°14'3 7.0
2017-Nov-18 09:30N 51°01' W 057°16'3 6.9
2017-Nov-18 09:00N 50°59' W 057°20'3 6.6
2017-Nov-18 08:29N 50°56' W 057°23'3 6.1
2017-Nov-18 08:00N 50°53' W 057°25'3 6.3
2017-Nov-18 07:30N 50°51' W 057°28'3 6.0
2017-Nov-18 07:00N 50°48' W 057°30'3 5.4
2017-Nov-18 06:30N 50°45' W 057°32'3 6.3
2017-Nov-18 06:00N 50°43' W 057°34'1 1.4
2017-Nov-18 05:30N 50°42' W 057°34'0 0.6
2017-Nov-18 05:00N 50°42' W 057°34'0 0.1
2017-Nov-18 04:30N 50°42' W 057°34'0 0.3
2017-Nov-18 04:00N 50°42' W 057°34'5 9.5
2017-Nov-18 03:30N 50°37' W 057°37'5 9.7
2017-Nov-18 03:00N 50°33' W 057°39'  

Dump ship's entire track history